sensor_id;sensor_type;location;lat;lon;timestamp;temperature;humidity
17791;DHT22;9019;48.132;-1.210;2022-08-06T00:02:26;12.50;99.90
17791;DHT22;9019;48.132;-1.210;2022-08-06T00:04:54;12.60;99.90
17791;DHT22;9019;48.132;-1.210;2022-08-06T00:07:22;12.60;99.90
17791;DHT22;9019;48.132;-1.210;2022-08-06T00:09:49;12.60;99.90
17791;DHT22;9019;48.132;-1.210;2022-08-06T00:12:17;12.60;99.90
17791;DHT22;9019;48.132;-1.210;2022-08-06T00:14:44;12.50;99.90
17791;DHT22;9019;48.132;-1.210;2022-08-06T00:17:11;12.40;99.90
17791;DHT22;9019;48.132;-1.210;2022-08-06T00:19:37;12.40;99.90
17791;DHT22;9019;48.132;-1.210;2022-08-06T00:22:04;12.30;99.90
17791;DHT22;9019;48.132;-1.210;2022-08-06T00:24:31;12.30;99.90
17791;DHT22;9019;48.132;-1.210;2022-08-06T00:26:58;12.30;99.90
17791;DHT22;9019;48.132;-1.210;2022-08-06T00:29:26;12.10;99.90
17791;DHT22;9019;48.132;-1.210;2022-08-06T00:31:53;12.00;99.90
17791;DHT22;9019;48.132;-1.210;2022-08-06T00:34:20;12.00;99.90
17791;DHT22;9019;48.132;-1.210;2022-08-06T00:36:48;12.00;99.90
17791;DHT22;9019;48.132;-1.210;2022-08-06T00:39:15;12.10;99.90
17791;DHT22;9019;48.132;-1.210;2022-08-06T00:41:42;12.20;99.90
17791;DHT22;9019;48.132;-1.210;2022-08-06T00:44:09;12.20;99.90
17791;DHT22;9019;48.132;-1.210;2022-08-06T00:46:37;12.20;99.90
17791;DHT22;9019;48.132;-1.210;2022-08-06T00:49:04;12.10;99.90
17791;DHT22;9019;48.132;-1.210;2022-08-06T00:51:32;11.90;99.90
17791;DHT22;9019;48.132;-1.210;2022-08-06T00:54:00;11.80;99.90
17791;DHT22;9019;48.132;-1.210;2022-08-06T00:56:27;11.80;99.90
17791;DHT22;9019;48.132;-1.210;2022-08-06T00:58:54;11.70;99.90
17791;DHT22;9019;48.132;-1.210;2022-08-06T01:01:21;11.60;99.90
17791;DHT22;9019;48.132;-1.210;2022-08-06T01:03:49;11.60;99.90
17791;DHT22;9019;48.132;-1.210;2022-08-06T01:06:16;11.50;99.90
17791;DHT22;9019;48.132;-1.210;2022-08-06T01:08:43;11.60;99.90
17791;DHT22;9019;48.132;-1.210;2022-08-06T01:11:10;11.50;99.90
17791;DHT22;9019;48.132;-1.210;2022-08-06T01:13:37;11.60;99.90
17791;DHT22;9019;48.132;-1.210;2022-08-06T01:16:11;11.50;99.90
17791;DHT22;9019;48.132;-1.210;2022-08-06T01:18:47;11.50;99.90
17791;DHT22;9019;48.132;-1.210;2022-08-06T01:21:28;11.40;99.90
17791;DHT22;9019;48.132;-1.210;2022-08-06T01:24:39;11.30;99.90
17791;DHT22;9019;48.132;-1.210;2022-08-06T01:27:33;11.30;99.90
17791;DHT22;9019;48.132;-1.210;2022-08-06T01:30:05;11.20;99.90
17791;DHT22;9019;48.132;-1.210;2022-08-06T01:32:35;11.30;99.90
17791;DHT22;9019;48.132;-1.210;2022-08-06T01:35:07;11.30;99.90
17791;DHT22;9019;48.132;-1.210;2022-08-06T01:37:40;11.30;99.90
17791;DHT22;9019;48.132;-1.210;2022-08-06T01:40:13;11.20;99.90
17791;DHT22;9019;48.132;-1.210;2022-08-06T01:42:43;11.20;99.90
17791;DHT22;9019;48.132;-1.210;2022-08-06T01:45:13;11.10;99.90
17791;DHT22;9019;48.132;-1.210;2022-08-06T01:47:42;11.10;99.90
17791;DHT22;9019;48.132;-1.210;2022-08-06T01:50:12;11.10;99.90
17791;DHT22;9019;48.132;-1.210;2022-08-06T01:52:42;11.00;99.90
17791;DHT22;9019;48.132;-1.210;2022-08-06T01:55:12;10.90;99.90
17791;DHT22;9019;48.132;-1.210;2022-08-06T01:57:46;10.90;99.90
17791;DHT22;9019;48.132;-1.210;2022-08-06T02:00:14;10.90;99.90
17791;DHT22;9019;48.132;-1.210;2022-08-06T02:02:42;10.80;99.90
17791;DHT22;9019;48.132;-1.210;2022-08-06T02:05:12;10.70;99.90
17791;DHT22;9019;48.132;-1.210;2022-08-06T02:07:41;10.70;99.90
17791;DHT22;9019;48.132;-1.210;2022-08-06T02:10:09;10.70;99.90
17791;DHT22;9019;48.132;-1.210;2022-08-06T02:12:39;10.70;99.90
17791;DHT22;9019;48.132;-1.210;2022-08-06T02:15:12;10.70;99.90
17791;DHT22;9019;48.132;-1.210;2022-08-06T02:17:44;10.60;99.90
17791;DHT22;9019;48.132;-1.210;2022-08-06T02:20:16;10.60;99.90
17791;DHT22;9019;48.132;-1.210;2022-08-06T02:22:44;10.60;99.90
17791;DHT22;9019;48.132;-1.210;2022-08-06T02:25:13;10.60;99.90
17791;DHT22;9019;48.132;-1.210;2022-08-06T02:27:47;10.50;99.90
17791;DHT22;9019;48.132;-1.210;2022-08-06T02:30:16;10.50;99.90
17791;DHT22;9019;48.132;-1.210;2022-08-06T02:32:44;10.50;99.90
17791;DHT22;9019;48.132;-1.210;2022-08-06T02:35:11;10.50;99.90
17791;DHT22;9019;48.132;-1.210;2022-08-06T02:37:45;10.50;99.90
17791;DHT22;9019;48.132;-1.210;2022-08-06T02:40:19;10.50;99.90
17791;DHT22;9019;48.132;-1.210;2022-08-06T02:42:54;10.50;99.90
17791;DHT22;9019;48.132;-1.210;2022-08-06T02:45:29;10.40;99.90
17791;DHT22;9019;48.132;-1.210;2022-08-06T02:48:04;10.40;99.90
17791;DHT22;9019;48.132;-1.210;2022-08-06T02:50:36;10.40;99.90
17791;DHT22;9019;48.132;-1.210;2022-08-06T02:53:06;10.40;99.90
17791;DHT22;9019;48.132;-1.210;2022-08-06T02:55:35;10.50;99.90
17791;DHT22;9019;48.132;-1.210;2022-08-06T02:58:09;10.40;99.90
17791;DHT22;9019;48.132;-1.210;2022-08-06T03:00:41;10.40;99.90
17791;DHT22;9019;48.132;-1.210;2022-08-06T03:03:09;10.30;99.90
17791;DHT22;9019;48.132;-1.210;2022-08-06T03:05:37;10.30;99.90
17791;DHT22;9019;48.132;-1.210;2022-08-06T03:08:05;10.20;99.90
17791;DHT22;9019;48.132;-1.210;2022-08-06T03:10:35;10.20;99.90
17791;DHT22;9019;48.132;-1.210;2022-08-06T03:13:03;10.20;99.90
17791;DHT22;9019;48.132;-1.210;2022-08-06T03:15:33;10.30;99.90
17791;DHT22;9019;48.132;-1.210;2022-08-06T03:18:03;10.40;99.90
17791;DHT22;9019;48.132;-1.210;2022-08-06T03:20:32;10.30;99.90
17791;DHT22;9019;48.132;-1.210;2022-08-06T03:23:03;10.30;99.90
17791;DHT22;9019;48.132;-1.210;2022-08-06T03:25:32;10.30;99.90
17791;DHT22;9019;48.132;-1.210;2022-08-06T03:27:59;10.30;99.90
17791;DHT22;9019;48.132;-1.210;2022-08-06T03:30:27;10.20;99.90
17791;DHT22;9019;48.132;-1.210;2022-08-06T03:32:54;10.20;99.90
17791;DHT22;9019;48.132;-1.210;2022-08-06T03:35:24;10.30;99.90
17791;DHT22;9019;48.132;-1.210;2022-08-06T03:37:52;10.30;99.90
17791;DHT22;9019;48.132;-1.210;2022-08-06T03:40:21;10.30;99.90
17791;DHT22;9019;48.132;-1.210;2022-08-06T03:42:49;10.40;99.90
17791;DHT22;9019;48.132;-1.210;2022-08-06T03:45:16;10.30;99.90
17791;DHT22;9019;48.132;-1.210;2022-08-06T03:47:48;10.40;99.90
17791;DHT22;9019;48.132;-1.210;2022-08-06T03:50:20;10.40;99.90
17791;DHT22;9019;48.132;-1.210;2022-08-06T03:52:54;10.30;99.90
17791;DHT22;9019;48.132;-1.210;2022-08-06T03:55:24;10.20;99.90
17791;DHT22;9019;48.132;-1.210;2022-08-06T03:57:53;10.20;99.90
17791;DHT22;9019;48.132;-1.210;2022-08-06T04:00:24;10.20;99.90
17791;DHT22;9019;48.132;-1.210;2022-08-06T04:02:53;10.10;99.90
17791;DHT22;9019;48.132;-1.210;2022-08-06T04:05:23;10.10;99.90
17791;DHT22;9019;48.132;-1.210;2022-08-06T04:07:53;10.00;99.90
17791;DHT22;9019;48.132;-1.210;2022-08-06T04:10:21;10.10;99.90
17791;DHT22;9019;48.132;-1.210;2022-08-06T04:12:49;10.00;99.90
17791;DHT22;9019;48.132;-1.210;2022-08-06T04:15:17;10.00;99.90
17791;DHT22;9019;48.132;-1.210;2022-08-06T04:17:45;10.00;99.90
17791;DHT22;9019;48.132;-1.210;2022-08-06T04:20:16;10.00;99.90
17791;DHT22;9019;48.132;-1.210;2022-08-06T04:22:45;10.00;99.90
17791;DHT22;9019;48.132;-1.210;2022-08-06T04:25:13;10.00;99.90
17791;DHT22;9019;48.132;-1.210;2022-08-06T04:27:41;10.00;99.90
17791;DHT22;9019;48.132;-1.210;2022-08-06T04:30:11;10.00;99.90
17791;DHT22;9019;48.132;-1.210;2022-08-06T04:32:38;10.00;99.90
17791;DHT22;9019;48.132;-1.210;2022-08-06T04:35:08;10.00;99.90
17791;DHT22;9019;48.132;-1.210;2022-08-06T04:37:35;10.00;99.90
17791;DHT22;9019;48.132;-1.210;2022-08-06T04:40:03;9.90;99.90
17791;DHT22;9019;48.132;-1.210;2022-08-06T04:42:33;9.90;99.90
17791;DHT22;9019;48.132;-1.210;2022-08-06T04:45:01;9.90;99.90
17791;DHT22;9019;48.132;-1.210;2022-08-06T04:47:30;9.90;99.90
17791;DHT22;9019;48.132;-1.210;2022-08-06T04:49:58;10.00;99.90
17791;DHT22;9019;48.132;-1.210;2022-08-06T04:52:26;9.90;99.90
17791;DHT22;9019;48.132;-1.210;2022-08-06T04:54:53;9.90;99.90
17791;DHT22;9019;48.132;-1.210;2022-08-06T04:57:21;9.80;99.90
17791;DHT22;9019;48.132;-1.210;2022-08-06T04:59:49;9.90;99.90
17791;DHT22;9019;48.132;-1.210;2022-08-06T05:02:16;9.90;99.90
17791;DHT22;9019;48.132;-1.210;2022-08-06T05:04:43;9.70;99.90
17791;DHT22;9019;48.132;-1.210;2022-08-06T05:07:15;9.70;99.90
17791;DHT22;9019;48.132;-1.210;2022-08-06T05:09:43;9.70;99.90
17791;DHT22;9019;48.132;-1.210;2022-08-06T05:12:18;9.80;99.90
17791;DHT22;9019;48.132;-1.210;2022-08-06T05:14:52;9.90;99.90
17791;DHT22;9019;48.132;-1.210;2022-08-06T05:17:22;10.00;99.90
17791;DHT22;9019;48.132;-1.210;2022-08-06T05:19:55;10.00;99.90
17791;DHT22;9019;48.132;-1.210;2022-08-06T05:22:23;10.10;99.90
17791;DHT22;9019;48.132;-1.210;2022-08-06T05:24:51;10.30;99.90
17791;DHT22;9019;48.132;-1.210;2022-08-06T05:27:18;10.40;99.90
17791;DHT22;9019;48.132;-1.210;2022-08-06T05:29:45;10.40;99.90
17791;DHT22;9019;48.132;-1.210;2022-08-06T05:32:14;10.50;99.90
17791;DHT22;9019;48.132;-1.210;2022-08-06T05:34:42;10.70;99.90
17791;DHT22;9019;48.132;-1.210;2022-08-06T05:37:11;10.90;99.90
17791;DHT22;9019;48.132;-1.210;2022-08-06T05:39:38;11.30;99.90
17791;DHT22;9019;48.132;-1.210;2022-08-06T05:42:05;11.70;99.90
17791;DHT22;9019;48.132;-1.210;2022-08-06T05:44:32;12.10;99.90
17791;DHT22;9019;48.132;-1.210;2022-08-06T05:47:04;12.50;99.90
17791;DHT22;9019;48.132;-1.210;2022-08-06T05:49:38;13.00;99.90
17791;DHT22;9019;48.132;-1.210;2022-08-06T05:52:10;13.20;99.90
17791;DHT22;9019;48.132;-1.210;2022-08-06T05:54:49;13.60;99.90
17791;DHT22;9019;48.132;-1.210;2022-08-06T05:57:21;14.20;99.90
17791;DHT22;9019;48.132;-1.210;2022-08-06T05:59:54;14.70;99.90
17791;DHT22;9019;48.132;-1.210;2022-08-06T06:02:23;15.00;99.90
17791;DHT22;9019;48.132;-1.210;2022-08-06T06:04:53;15.90;99.90
17791;DHT22;9019;48.132;-1.210;2022-08-06T06:07:21;16.30;99.90
17791;DHT22;9019;48.132;-1.210;2022-08-06T06:09:48;17.10;99.90
17791;DHT22;9019;48.132;-1.210;2022-08-06T06:12:16;17.70;99.90
17791;DHT22;9019;48.132;-1.210;2022-08-06T06:14:45;17.80;99.90
17791;DHT22;9019;48.132;-1.210;2022-08-06T06:17:27;18.10;99.90
17791;DHT22;9019;48.132;-1.210;2022-08-06T06:20:06;18.90;99.90
17791;DHT22;9019;48.132;-1.210;2022-08-06T06:22:39;19.30;99.90
17791;DHT22;9019;48.132;-1.210;2022-08-06T06:25:12;19.80;99.90
17791;DHT22;9019;48.132;-1.210;2022-08-06T06:27:46;20.00;99.90
17791;DHT22;9019;48.132;-1.210;2022-08-06T06:30:18;20.10;99.90
